createdAt,value
2024-04-08T00:00:08.271Z,28.64
2024-04-08T00:01:08.196Z,28.48
2024-04-08T00:02:08.210Z,28.45
2024-04-08T00:03:08.237Z,28.44
2024-04-08T00:04:08.256Z,28.45
2024-04-08T00:05:08.709Z,28.44
2024-04-08T00:06:08.213Z,28.41
2024-04-08T00:07:08.279Z,28.47
2024-04-08T00:08:08.258Z,28.47
2024-04-08T00:09:08.296Z,28.44
2024-04-08T00:10:08.338Z,28.45
2024-04-08T00:11:08.382Z,28.41
2024-04-08T00:12:08.414Z,28.43
2024-04-08T00:13:08.452Z,28.41
2024-04-08T00:14:08.492Z,28.44
2024-04-08T00:15:08.518Z,28.45
2024-04-08T00:16:08.577Z,28.45
2024-04-08T00:17:08.590Z,28.51
2024-04-08T00:18:08.637Z,28.52
2024-04-08T00:19:08.671Z,28.54
2024-04-08T00:20:08.720Z,28.45
2024-04-08T00:21:08.753Z,28.43
2024-04-08T00:22:08.785Z,28.41
2024-04-08T00:23:09.760Z,28.45
2024-04-08T00:24:08.868Z,28.40
2024-04-08T00:25:08.904Z,28.44
2024-04-08T00:26:08.960Z,28.41
2024-04-08T00:27:08.996Z,28.43
2024-04-08T00:28:09.016Z,28.42
2024-04-08T00:29:09.058Z,28.38
2024-04-08T00:30:09.092Z,28.38
2024-04-08T00:31:09.230Z,28.41
2024-04-08T00:32:09.158Z,28.40
2024-04-08T00:33:09.206Z,28.41
2024-04-08T00:34:09.247Z,28.45
2024-04-08T00:35:09.287Z,28.45
2024-04-08T00:36:09.328Z,28.38
2024-04-08T00:37:09.357Z,28.37
2024-04-08T00:38:09.391Z,28.41
2024-04-08T00:39:10.206Z,28.36
2024-04-08T00:40:09.482Z,28.33
2024-04-08T00:41:09.517Z,28.31
2024-04-08T00:42:09.563Z,28.37
2024-04-08T00:43:09.602Z,28.38
2024-04-08T00:44:09.639Z,28.36
2024-04-08T00:45:09.683Z,28.35
2024-04-08T00:46:09.737Z,28.31
2024-04-08T00:47:09.775Z,28.30
2024-04-08T00:48:09.810Z,28.31
2024-04-08T00:49:09.861Z,28.33
2024-04-08T00:50:09.952Z,28.36
2024-04-08T00:51:09.913Z,28.31
2024-04-08T00:52:09.967Z,28.30
2024-04-08T00:53:10.003Z,28.35
2024-04-08T00:54:10.037Z,28.35
2024-04-08T00:55:10.072Z,28.42
2024-04-08T00:56:10.111Z,28.38
2024-04-08T00:57:10.152Z,28.40
2024-04-08T00:58:10.196Z,28.39
2024-04-08T00:59:10.242Z,28.37
2024-04-08T01:00:10.272Z,28.31
2024-04-08T01:01:10.295Z,28.29
2024-04-08T01:02:10.342Z,28.30
2024-04-08T01:03:10.389Z,28.24
2024-04-08T01:04:10.427Z,28.29
2024-04-08T01:05:10.464Z,28.24
2024-04-08T01:06:10.491Z,28.29
2024-04-08T01:07:10.547Z,28.44
2024-04-08T01:08:10.573Z,28.39
2024-04-08T01:09:10.685Z,28.35
2024-04-08T01:10:10.656Z,28.31
2024-04-08T01:11:10.735Z,28.33
2024-04-08T01:12:10.721Z,28.38
2024-04-08T01:13:10.773Z,28.41
2024-04-08T01:14:10.811Z,28.50
2024-04-08T01:15:10.852Z,28.52
2024-04-08T01:16:10.892Z,28.58
2024-04-08T01:17:10.927Z,28.57
2024-04-08T01:18:11.050Z,28.58
2024-04-08T01:19:10.996Z,28.53
2024-04-08T01:20:11.250Z,28.56
2024-04-08T01:21:11.727Z,28.57
2024-04-08T01:22:11.124Z,28.64
2024-04-08T01:23:11.188Z,28.60
2024-04-08T01:24:11.177Z,28.65
2024-04-08T01:25:11.216Z,28.56
2024-04-08T01:26:11.256Z,28.61
2024-04-08T01:27:11.294Z,28.61
2024-04-08T01:28:11.323Z,28.64
2024-04-08T01:29:11.365Z,28.61
2024-04-08T01:30:11.417Z,28.64
2024-04-08T01:31:11.443Z,28.57
2024-04-08T01:32:11.509Z,28.60
2024-04-08T01:33:11.513Z,28.58
2024-04-08T01:34:11.574Z,28.58
2024-04-08T01:35:11.591Z,28.57
2024-04-08T01:36:11.639Z,28.52
2024-04-08T01:37:11.681Z,28.55
2024-04-08T01:38:11.798Z,28.52
2024-04-08T01:39:11.764Z,28.55
2024-04-08T01:40:11.802Z,28.55
2024-04-08T01:41:11.835Z,28.56
2024-04-08T01:42:11.870Z,28.56
2024-04-08T01:43:11.900Z,28.58
2024-04-08T01:44:11.936Z,28.58
2024-04-08T01:45:11.980Z,28.56
2024-04-08T01:46:12.392Z,28.52
2024-04-08T01:47:12.048Z,28.52
2024-04-08T01:48:12.082Z,28.45
2024-04-08T01:49:12.111Z,28.45
2024-04-08T01:50:12.162Z,28.52
2024-04-08T01:51:12.189Z,28.54
2024-04-08T01:52:12.264Z,28.51
2024-04-08T01:53:12.366Z,28.47
2024-04-08T01:54:12.275Z,28.49
2024-04-08T01:55:12.351Z,28.49
2024-04-08T01:56:12.364Z,28.52
2024-04-08T01:57:12.407Z,28.47
2024-04-08T01:58:12.407Z,28.51
2024-04-08T01:59:12.451Z,28.43
2024-04-08T02:00:12.512Z,28.48
2024-04-08T02:01:12.572Z,28.51
2024-04-08T02:02:12.579Z,28.52
2024-04-08T02:03:12.576Z,28.47
2024-04-08T02:04:12.623Z,28.48
2024-04-08T02:05:12.665Z,28.46
2024-04-08T02:06:12.709Z,28.41
2024-04-08T02:07:12.730Z,28.43
2024-04-08T02:08:12.772Z,28.44
2024-04-08T02:09:12.806Z,28.47
2024-04-08T02:10:12.842Z,28.47
2024-04-08T02:11:12.874Z,28.41
2024-04-08T02:12:12.897Z,28.40
2024-04-08T02:13:12.950Z,28.44
2024-04-08T02:14:13.034Z,28.45
2024-04-08T02:15:12.998Z,28.43
2024-04-08T02:16:13.094Z,28.41
2024-04-08T02:17:13.068Z,28.43
2024-04-08T02:18:13.253Z,28.45
2024-04-08T02:19:13.128Z,28.43
2024-04-08T02:20:13.146Z,28.39
2024-04-08T02:21:13.196Z,28.43
2024-04-08T02:22:13.210Z,28.44
2024-04-08T02:23:13.236Z,28.41
2024-04-08T02:24:13.350Z,28.43
2024-04-08T02:25:13.312Z,28.39
2024-04-08T02:26:13.327Z,28.41
2024-04-08T02:27:13.345Z,28.41
2024-04-08T02:28:13.397Z,28.41
2024-04-08T02:29:13.419Z,28.39
2024-04-08T02:30:13.451Z,28.41
2024-04-08T02:31:13.503Z,28.41
2024-04-08T02:32:13.536Z,28.41
2024-04-08T02:33:13.560Z,28.40
2024-04-08T02:34:13.596Z,28.40
2024-04-08T02:35:13.623Z,28.40
2024-04-08T02:36:13.674Z,28.43
2024-04-08T02:37:13.783Z,28.39
2024-04-08T02:38:13.789Z,28.41
2024-04-08T02:39:13.759Z,28.47
2024-04-08T02:40:13.800Z,28.40
2024-04-08T02:41:13.850Z,28.43
2024-04-08T02:42:13.886Z,28.43
2024-04-08T02:43:13.926Z,28.34
2024-04-08T02:44:13.944Z,28.36
2024-04-08T02:45:14.004Z,28.41
2024-04-08T02:46:14.020Z,28.36
2024-04-08T02:47:14.054Z,28.41
2024-04-08T02:48:14.084Z,28.39
2024-04-08T02:49:14.127Z,28.43
2024-04-08T02:50:14.170Z,28.39
2024-04-08T02:51:14.201Z,28.40
2024-04-08T02:52:14.324Z,28.36
2024-04-08T02:53:14.273Z,28.39
2024-04-08T02:54:14.313Z,28.36
2024-04-08T02:55:14.337Z,28.43
2024-04-08T02:56:14.447Z,28.41
2024-04-08T02:57:14.410Z,28.41
2024-04-08T02:58:14.457Z,28.40
2024-04-08T02:59:14.498Z,28.45
2024-04-08T03:00:14.528Z,28.40
2024-04-08T03:01:14.543Z,28.41
2024-04-08T03:02:14.588Z,28.37
2024-04-08T03:03:15.351Z,28.40
2024-04-08T03:04:14.654Z,28.40
2024-04-08T03:05:14.771Z,28.43
2024-04-08T03:06:14.723Z,28.39
2024-04-08T03:07:14.754Z,28.39
2024-04-08T03:08:14.784Z,28.41
2024-04-08T03:09:14.820Z,28.39
2024-04-08T03:10:14.857Z,28.41
2024-04-08T03:11:14.894Z,28.40
2024-04-08T03:12:14.921Z,28.40
2024-04-08T03:13:14.964Z,28.43
2024-04-08T03:14:15.765Z,28.36
2024-04-08T03:15:15.042Z,28.40
2024-04-08T03:16:15.060Z,28.42
2024-04-08T03:17:15.099Z,28.39
2024-04-08T03:18:15.164Z,28.42
2024-04-08T03:19:15.195Z,28.40
2024-04-08T03:20:15.200Z,28.39
2024-04-08T03:21:15.253Z,28.37
2024-04-08T03:22:15.279Z,28.43
2024-04-08T03:23:15.322Z,28.41
2024-04-08T03:24:15.350Z,28.42
2024-04-08T03:25:15.399Z,28.41
2024-04-08T03:26:15.428Z,28.38
2024-04-08T03:27:15.466Z,28.37
2024-04-08T03:28:15.510Z,28.41
2024-04-08T03:29:15.529Z,28.43
2024-04-08T03:30:15.580Z,28.40
2024-04-08T03:31:15.615Z,28.39
2024-04-08T03:32:15.634Z,28.37
2024-04-08T03:33:15.704Z,28.41
2024-04-08T03:34:15.700Z,28.42
2024-04-08T03:35:15.746Z,28.38
2024-04-08T03:36:15.775Z,28.39
2024-04-08T03:37:15.801Z,28.37
2024-04-08T03:38:15.838Z,28.41
2024-04-08T03:39:15.868Z,28.42
2024-04-08T03:40:15.902Z,28.39
2024-04-08T03:41:15.949Z,28.38
2024-04-08T03:42:15.979Z,28.33
2024-04-08T03:43:17.281Z,28.37
2024-04-08T03:44:16.017Z,28.36
2024-04-08T03:45:16.013Z,28.38
2024-04-08T03:46:16.016Z,28.38
2024-04-08T03:47:16.012Z,28.37
2024-04-08T03:48:16.048Z,28.36
2024-04-08T03:49:16.081Z,28.38
2024-04-08T03:50:16.015Z,28.40
2024-04-08T03:51:16.029Z,28.34
2024-04-08T03:52:16.025Z,28.38
2024-04-08T03:53:16.013Z,28.37
2024-04-08T03:54:16.024Z,28.37
2024-04-08T03:55:16.022Z,28.37
2024-04-08T03:56:16.024Z,28.40
2024-04-08T03:57:16.024Z,28.38
2024-04-08T03:58:16.291Z,28.38
2024-04-08T03:59:16.025Z,28.33
2024-04-08T04:00:16.025Z,28.35
2024-04-08T04:01:16.019Z,28.37
2024-04-08T04:02:16.021Z,28.36
2024-04-08T04:03:16.031Z,28.33
2024-04-08T04:04:16.048Z,28.38
2024-04-08T04:05:16.094Z,28.34
2024-04-08T04:06:16.039Z,28.34
2024-04-08T04:07:16.024Z,28.33
2024-04-08T04:08:16.028Z,28.36
2024-04-08T04:09:16.028Z,28.34
2024-04-08T04:10:16.030Z,28.38
2024-04-08T04:11:16.098Z,28.36
2024-04-08T04:12:16.111Z,28.36
2024-04-08T04:13:16.044Z,28.34
2024-04-08T04:14:16.038Z,28.33
2024-04-08T04:15:16.044Z,28.34
2024-04-08T04:16:23.713Z,28.36
2024-04-08T04:17:23.864Z,28.35
2024-04-08T04:18:23.866Z,28.31
2024-04-08T04:19:23.763Z,28.29
2024-04-08T04:20:23.803Z,28.37
2024-04-08T04:21:24.355Z,28.38
2024-04-08T04:22:23.779Z,28.36
2024-04-08T04:23:23.770Z,28.30
2024-04-08T04:24:23.790Z,28.33
2024-04-08T04:25:23.791Z,28.31
2024-04-08T04:26:24.329Z,28.34
2024-04-08T04:27:23.777Z,28.36
2024-04-08T04:28:23.790Z,28.30
2024-04-08T04:29:23.799Z,28.31
2024-04-08T04:30:23.790Z,28.35
2024-04-08T04:31:30.968Z,28.36
2024-04-08T04:32:31.035Z,28.39
2024-04-08T04:33:31.094Z,28.33
2024-04-08T04:34:31.102Z,28.35
2024-04-08T04:35:31.099Z,28.34
2024-04-08T04:36:31.095Z,28.35
2024-04-08T04:37:31.117Z,28.29
2024-04-08T04:38:31.109Z,28.34
2024-04-08T04:39:31.182Z,28.33
2024-04-08T04:40:31.104Z,28.33
2024-04-08T04:41:31.109Z,28.30
2024-04-08T04:42:31.099Z,28.33
2024-04-08T04:43:31.118Z,28.31
2024-04-08T04:44:31.090Z,28.30
2024-04-08T04:45:31.109Z,28.33
2024-04-08T04:46:31.104Z,28.28
2024-04-08T04:47:31.150Z,28.31
2024-04-08T04:48:31.107Z,28.35
2024-04-08T04:49:31.105Z,28.27
2024-04-08T04:50:31.107Z,28.25
2024-04-08T04:51:31.118Z,28.30
2024-04-08T04:52:31.095Z,28.34
2024-04-08T04:53:31.098Z,28.30
2024-04-08T04:54:33.389Z,28.27
2024-04-08T04:55:31.290Z,28.27
2024-04-08T04:56:32.094Z,28.33
2024-04-08T04:57:31.368Z,28.26
2024-04-08T04:58:31.416Z,28.26
2024-04-08T04:59:31.452Z,28.29
2024-04-08T05:00:31.660Z,28.30
2024-04-08T05:01:31.535Z,28.29
2024-04-08T05:02:31.572Z,28.25
2024-04-08T05:03:31.624Z,28.30
2024-04-08T05:04:31.707Z,28.30
2024-04-08T05:05:31.714Z,28.31
2024-04-08T05:06:31.753Z,28.26
2024-04-08T05:07:31.850Z,28.30
2024-04-08T05:08:31.834Z,28.26
2024-04-08T05:09:31.860Z,28.26
2024-04-08T05:10:31.908Z,28.30
2024-04-08T05:11:31.943Z,28.30
2024-04-08T05:12:31.982Z,28.31
2024-04-08T05:13:32.116Z,28.33
2024-04-08T05:14:32.067Z,28.35
2024-04-08T05:15:32.124Z,28.27
2024-04-08T05:16:32.170Z,28.28
2024-04-08T05:17:32.232Z,28.45
2024-04-08T05:18:32.238Z,28.46
2024-04-08T05:19:32.279Z,28.54
2024-04-08T05:20:32.340Z,28.84
2024-04-08T05:21:32.431Z,28.92
2024-04-08T05:22:32.404Z,29.09
2024-04-08T05:23:32.446Z,29.44
2024-04-08T05:24:32.492Z,29.55
2024-04-08T05:25:32.529Z,29.86
2024-04-08T05:26:32.579Z,29.93
2024-04-08T05:27:32.587Z,29.89
2024-04-08T05:28:32.597Z,30.05
2024-04-08T05:29:34.235Z,30.61
2024-04-08T05:30:32.631Z,30.73
2024-04-08T05:31:32.626Z,30.75
2024-04-08T05:32:32.635Z,30.94
2024-04-08T05:33:32.636Z,31.00
2024-04-08T05:34:32.634Z,31.15
2024-04-08T05:35:32.625Z,31.28
2024-04-08T05:36:35.062Z,31.47
2024-04-08T05:37:33.042Z,31.58
2024-04-08T05:38:32.846Z,31.70
2024-04-08T05:39:32.945Z,31.80
2024-04-08T05:40:33.112Z,31.94
2024-04-08T05:41:33.018Z,32.11
2024-04-08T05:42:33.076Z,32.15
2024-04-08T05:43:34.105Z,32.21
2024-04-08T05:44:34.118Z,32.34
2024-04-08T05:45:33.264Z,32.60
2024-04-08T05:46:33.388Z,32.64
2024-04-08T05:47:33.439Z,32.80
2024-04-08T05:48:33.455Z,32.87
2024-04-08T05:49:33.514Z,33.03
2024-04-08T05:50:33.586Z,33.16
2024-04-08T05:51:33.684Z,33.36
2024-04-08T05:52:33.739Z,33.40
2024-04-08T05:53:33.737Z,33.56
2024-04-08T05:54:33.803Z,33.69
2024-04-08T05:55:33.866Z,33.72
2024-04-08T05:56:33.966Z,33.86
2024-04-08T05:57:33.971Z,34.00
2024-04-08T05:58:34.031Z,34.09
2024-04-08T05:59:34.093Z,34.19
2024-04-08T06:00:35.135Z,34.23
2024-04-08T06:01:34.201Z,34.37
2024-04-08T06:02:34.268Z,34.54
2024-04-08T06:03:34.336Z,34.59
2024-04-08T06:04:34.379Z,34.69
2024-04-08T06:05:34.440Z,34.77
2024-04-08T06:06:34.542Z,34.78
2024-04-08T06:07:34.548Z,34.94
2024-04-08T06:08:34.605Z,35.11
2024-04-08T06:09:34.651Z,35.19
2024-04-08T06:10:34.712Z,35.24
2024-04-08T06:11:34.795Z,35.39
2024-04-08T06:12:34.771Z,35.42
2024-04-08T06:13:34.802Z,35.23
2024-04-08T06:14:34.841Z,34.55
2024-04-08T06:15:34.902Z,34.10
2024-04-08T06:16:34.969Z,34.61
2024-04-08T06:17:35.036Z,33.68
2024-04-08T06:18:35.086Z,34.52
2024-04-08T06:19:35.199Z,30.44
2024-04-08T06:20:35.179Z,29.98
2024-04-08T06:21:35.204Z,29.94
2024-04-08T06:22:35.250Z,29.39
2024-04-08T06:23:35.333Z,30.16
2024-04-08T06:24:35.427Z,31.02
2024-04-08T06:25:35.476Z,31.48
2024-04-08T06:26:35.542Z,32.59
2024-04-08T06:27:35.582Z,32.58
2024-04-08T06:28:35.635Z,32.54
2024-04-08T06:29:35.768Z,32.72
2024-04-08T06:30:35.700Z,33.55
2024-04-08T06:31:36.619Z,33.31
2024-04-08T06:32:35.834Z,33.50
2024-04-08T06:33:35.763Z,33.54
2024-04-08T06:34:36.662Z,33.64
2024-04-08T06:35:35.902Z,33.75
2024-04-08T06:36:37.547Z,33.86
2024-04-08T06:37:35.923Z,34.01
2024-04-08T06:38:36.016Z,34.09
2024-04-08T06:39:36.048Z,34.21
2024-04-08T06:40:37.077Z,33.68
2024-04-08T06:41:36.647Z,34.05
2024-04-08T06:42:36.042Z,33.53
2024-04-08T06:43:36.042Z,32.89
2024-04-08T06:44:36.198Z,32.86
2024-04-08T06:45:36.062Z,32.33
2024-04-08T06:46:36.048Z,32.85
2024-04-08T06:47:36.134Z,32.93
2024-04-08T06:48:36.059Z,32.91
2024-04-08T06:49:36.628Z,33.03
2024-04-08T06:50:36.158Z,32.27
2024-04-08T06:51:36.192Z,32.99
2024-04-08T06:52:36.234Z,32.50
2024-04-08T06:53:36.416Z,32.87
2024-04-08T06:54:36.393Z,32.89
2024-04-08T06:55:36.429Z,32.94
2024-04-08T06:56:36.674Z,33.06
2024-04-08T06:57:36.542Z,33.17
2024-04-08T06:58:36.590Z,33.34
2024-04-08T06:59:36.718Z,33.55
2024-04-08T07:00:37.222Z,33.72
2024-04-08T07:01:36.796Z,33.87
2024-04-08T07:02:36.821Z,33.99
2024-04-08T07:03:36.810Z,34.04
2024-04-08T07:04:36.834Z,34.15
2024-04-08T07:05:36.886Z,34.37
2024-04-08T07:06:36.917Z,34.45
2024-04-08T07:07:36.960Z,34.57
2024-04-08T07:08:37.027Z,34.69
2024-04-08T07:09:37.007Z,34.78
2024-04-08T07:10:37.028Z,33.45
2024-04-08T07:11:37.652Z,32.94
2024-04-08T07:12:37.099Z,30.01
2024-04-08T07:13:38.054Z,28.94
2024-04-08T07:14:37.269Z,29.08
2024-04-08T07:15:37.802Z,27.84
2024-04-08T07:16:37.326Z,26.70
2024-04-08T07:17:37.558Z,27.57
2024-04-08T07:18:37.361Z,27.80
2024-04-08T07:19:37.517Z,27.89
2024-04-08T07:20:37.522Z,28.00
2024-04-08T07:21:37.552Z,28.07
2024-04-08T07:22:38.553Z,28.12
2024-04-08T07:23:37.655Z,28.11
2024-04-08T07:24:37.655Z,28.15
2024-04-08T07:25:38.710Z,28.14
2024-04-08T07:26:37.671Z,28.19
2024-04-08T07:27:37.651Z,28.22
2024-04-08T07:28:37.651Z,28.19
2024-04-08T07:29:37.678Z,28.26
2024-04-08T07:30:37.698Z,28.27
2024-04-08T07:31:37.690Z,28.36
2024-04-08T07:32:37.734Z,28.40
2024-04-08T07:33:37.654Z,28.45
2024-04-08T07:34:37.686Z,28.34
2024-04-08T07:35:37.780Z,28.53
2024-04-08T07:36:37.660Z,28.38
2024-04-08T07:37:37.688Z,28.41
2024-04-08T07:38:52.438Z,28.50
2024-04-08T07:39:40.657Z,28.61
2024-04-08T07:40:37.713Z,28.56
2024-04-08T07:41:37.714Z,28.55
2024-04-08T07:42:37.708Z,28.39
2024-04-08T07:43:38.569Z,28.62
2024-04-08T07:44:37.685Z,28.64
2024-04-08T07:45:38.652Z,28.39
2024-04-08T07:46:37.683Z,28.53
2024-04-08T07:47:37.729Z,28.34
2024-04-08T07:48:37.696Z,28.49
2024-04-08T07:49:37.713Z,28.47
2024-04-08T07:50:37.702Z,28.53
2024-04-08T07:51:37.762Z,28.49
2024-04-08T07:52:37.701Z,28.58
2024-04-08T07:53:38.198Z,28.50
2024-04-08T07:54:37.759Z,28.64
2024-04-08T07:55:39.162Z,28.61
2024-04-08T07:56:37.709Z,28.44
2024-04-08T07:57:37.714Z,28.52
2024-04-08T07:58:37.745Z,28.52
2024-04-08T07:59:38.677Z,28.57
2024-04-08T08:00:42.560Z,28.58
2024-04-08T08:01:38.710Z,28.57
2024-04-08T08:02:37.727Z,28.53
2024-04-08T08:03:37.718Z,28.47
2024-04-08T08:04:37.809Z,28.60
2024-04-08T08:05:37.717Z,28.60
2024-04-08T08:06:37.765Z,28.60
2024-04-08T08:07:37.711Z,28.43
2024-04-08T08:08:37.717Z,28.56
2024-04-08T08:09:37.712Z,28.52
2024-04-08T08:10:37.739Z,28.57
2024-04-08T08:11:37.773Z,28.49
2024-04-08T08:12:37.799Z,28.62
2024-04-08T08:13:37.916Z,28.63
2024-04-08T08:14:37.884Z,28.58
2024-04-08T08:15:37.921Z,28.60
2024-04-08T08:16:37.962Z,28.52
2024-04-08T08:17:38.037Z,28.51
2024-04-08T08:18:38.161Z,28.49
2024-04-08T08:19:38.112Z,28.58
2024-04-08T08:20:38.164Z,28.51
2024-04-08T08:21:38.200Z,28.58
2024-04-08T08:22:38.215Z,28.52
2024-04-08T08:23:38.274Z,28.55
2024-04-08T08:24:40.084Z,28.67
2024-04-08T08:25:38.356Z,28.56
2024-04-08T08:26:38.395Z,28.52
2024-04-08T08:27:38.429Z,28.61
2024-04-08T08:28:38.473Z,28.63
2024-04-08T08:29:38.532Z,28.59
2024-04-08T08:30:38.550Z,28.52
2024-04-08T08:31:38.652Z,28.51
2024-04-08T08:32:38.698Z,28.54
2024-04-08T08:33:38.690Z,28.49
2024-04-08T08:34:39.673Z,28.54
2024-04-08T08:35:38.811Z,28.58
2024-04-08T08:36:38.835Z,28.52
2024-04-08T08:37:40.900Z,28.58
2024-04-08T08:38:39.024Z,28.61
2024-04-08T08:39:38.902Z,28.62
2024-04-08T08:40:38.897Z,28.48
2024-04-08T08:41:38.997Z,28.51
2024-04-08T08:42:38.983Z,28.58
2024-04-08T08:43:38.888Z,28.56
2024-04-08T08:44:38.956Z,28.66
2024-04-08T08:45:38.895Z,28.54
2024-04-08T08:46:38.933Z,28.58
2024-04-08T08:47:38.975Z,28.54
2024-04-08T08:48:38.934Z,28.51
2024-04-08T08:49:38.905Z,28.62
2024-04-08T08:50:38.903Z,28.62
2024-04-08T08:51:38.906Z,28.62
2024-04-08T08:52:38.906Z,28.55
2024-04-08T08:53:38.915Z,28.61
2024-04-08T08:54:38.914Z,28.62
2024-04-08T08:55:38.960Z,28.56
2024-04-08T08:56:38.921Z,28.59
2024-04-08T08:57:38.938Z,28.58
2024-04-08T08:58:38.909Z,28.58
2024-04-08T08:59:38.917Z,28.61
2024-04-08T09:00:38.997Z,28.58
2024-04-08T09:01:38.919Z,28.55
2024-04-08T09:02:38.997Z,28.61
2024-04-08T09:03:38.918Z,28.54
2024-04-08T09:04:38.923Z,28.58
2024-04-08T09:05:38.916Z,28.63
2024-04-08T09:06:39.200Z,28.57
2024-04-08T09:07:39.051Z,28.59
2024-04-08T09:08:38.924Z,28.58
2024-04-08T09:09:38.940Z,28.58
2024-04-08T09:10:39.039Z,28.56
2024-04-08T09:11:39.805Z,28.63
2024-04-08T09:12:38.933Z,28.58
2024-04-08T09:13:38.941Z,28.54
2024-04-08T09:14:38.939Z,28.55
2024-04-08T09:15:39.607Z,28.50
2024-04-08T09:16:39.048Z,28.54
2024-04-08T09:17:39.288Z,28.50
2024-04-08T09:18:39.179Z,28.58
2024-04-08T09:19:39.245Z,28.70
2024-04-08T09:20:39.297Z,28.63
2024-04-08T09:21:41.701Z,27.00
2024-04-08T09:22:39.421Z,27.13
2024-04-08T09:23:39.487Z,27.60
2024-04-08T09:24:39.445Z,28.08
2024-04-08T09:25:39.464Z,28.70
2024-04-08T09:26:39.465Z,28.74
2024-04-08T09:27:40.245Z,29.39
2024-04-08T09:28:39.505Z,29.60
2024-04-08T09:29:39.550Z,29.86
2024-04-08T09:30:39.625Z,30.15
2024-04-08T09:31:39.769Z,30.41
2024-04-08T09:32:39.749Z,30.74
2024-04-08T09:33:39.885Z,31.03
2024-04-08T09:34:39.869Z,31.28
2024-04-08T09:35:40.830Z,31.64
2024-04-08T09:36:39.973Z,31.88
2024-04-08T09:37:40.013Z,31.89
2024-04-08T09:38:40.067Z,32.08
2024-04-08T09:39:40.118Z,32.22
2024-04-08T09:40:40.117Z,32.48
2024-04-08T09:41:40.182Z,32.64
2024-04-08T09:42:40.190Z,32.79
2024-04-08T09:43:40.269Z,32.94
2024-04-08T09:44:40.291Z,33.09
2024-04-08T09:45:40.293Z,33.11
2024-04-08T09:46:40.387Z,32.48
2024-04-08T09:47:40.413Z,32.46
2024-04-08T09:48:40.372Z,32.19
2024-04-08T09:49:47.900Z,32.09
2024-04-08T09:50:41.428Z,32.11
2024-04-08T09:51:40.415Z,32.22
2024-04-08T09:52:40.417Z,32.35
2024-04-08T09:53:40.475Z,32.51
2024-04-08T09:54:40.406Z,32.68
2024-04-08T09:55:40.639Z,32.84
2024-04-08T09:56:40.507Z,32.99
2024-04-08T09:57:40.430Z,33.18
2024-04-08T09:58:40.421Z,33.32
2024-04-08T09:59:40.440Z,33.43
2024-04-08T10:00:40.434Z,33.53
2024-04-08T10:01:40.432Z,33.68
2024-04-08T10:02:40.441Z,33.82
2024-04-08T10:03:40.409Z,33.88
2024-04-08T10:04:40.416Z,33.88
2024-04-08T10:05:40.420Z,34.07
2024-04-08T10:06:40.427Z,33.86
2024-04-08T10:07:40.417Z,34.04
2024-04-08T10:08:40.408Z,34.02
2024-04-08T10:09:40.446Z,34.29
2024-04-08T10:10:40.410Z,34.30
2024-04-08T10:11:40.467Z,34.11
2024-04-08T10:12:40.518Z,33.43
2024-04-08T10:13:40.449Z,33.18
2024-04-08T10:14:40.433Z,33.29
2024-04-08T10:15:40.427Z,33.28
2024-04-08T10:16:40.425Z,33.44
2024-04-08T10:17:40.500Z,33.10
2024-04-08T10:18:40.466Z,33.16
2024-04-08T10:19:40.437Z,33.81
2024-04-08T10:20:40.448Z,33.68
2024-04-08T10:21:40.448Z,33.92
2024-04-08T10:22:40.432Z,34.18
2024-04-08T10:24:41.487Z,34.67
2024-04-08T10:25:40.497Z,34.92
2024-04-08T10:26:40.440Z,35.04
2024-04-08T10:27:40.460Z,34.71
2024-04-08T10:28:40.441Z,35.22
2024-04-08T10:29:41.211Z,35.34
2024-04-08T10:30:40.453Z,35.36
2024-04-08T10:31:40.444Z,35.32
2024-04-08T10:32:40.486Z,35.30
2024-04-08T10:33:40.571Z,35.37
2024-04-08T10:34:41.354Z,35.17
2024-04-08T10:35:40.444Z,34.95
2024-04-08T10:36:40.479Z,34.90
2024-04-08T10:37:40.445Z,34.84
2024-04-08T10:38:40.443Z,34.72
2024-04-08T10:39:40.541Z,34.77
2024-04-08T10:40:40.553Z,34.82
2024-04-08T10:41:40.680Z,31.05
2024-04-08T10:42:40.680Z,30.23
2024-04-08T10:43:40.813Z,29.52
2024-04-08T10:44:40.817Z,30.07
2024-04-08T10:45:41.804Z,27.98
2024-04-08T10:46:40.812Z,28.83
2024-04-08T10:47:40.858Z,28.74
2024-04-08T10:48:40.832Z,28.47
2024-04-08T10:49:40.817Z,28.71
2024-04-08T10:50:40.879Z,27.58
2024-04-08T10:51:41.030Z,27.06
2024-04-08T10:52:40.811Z,25.99
2024-04-08T10:53:41.782Z,27.07
2024-04-08T10:54:40.940Z,27.28
2024-04-08T10:55:41.006Z,27.50
2024-04-08T10:56:41.099Z,27.80
2024-04-08T10:57:41.141Z,27.90
2024-04-08T10:58:41.204Z,27.89
2024-04-08T10:59:41.298Z,27.79
2024-04-08T11:00:41.364Z,27.50
2024-04-08T11:01:41.396Z,27.68
2024-04-08T11:02:41.548Z,27.79
2024-04-08T11:03:41.502Z,27.96
2024-04-08T11:04:41.561Z,27.95
2024-04-08T11:05:41.511Z,27.80
2024-04-08T11:06:41.518Z,27.82
2024-04-08T11:07:44.316Z,27.82
2024-04-08T11:08:41.501Z,27.84
2024-04-08T11:09:42.225Z,27.80
2024-04-08T11:10:41.603Z,27.81
2024-04-08T11:11:41.517Z,27.82
2024-04-08T11:12:41.507Z,27.81
2024-04-08T11:13:42.234Z,27.79
2024-04-08T11:14:41.561Z,27.82
2024-04-08T11:15:41.561Z,27.80
2024-04-08T11:16:42.148Z,27.87
2024-04-08T11:17:41.516Z,27.87
2024-04-08T11:18:41.640Z,27.85
2024-04-08T11:19:41.522Z,27.85
2024-04-08T11:20:41.525Z,27.87
2024-04-08T11:21:41.518Z,27.85
2024-04-08T11:22:41.558Z,27.87
2024-04-08T11:23:41.523Z,27.91
2024-04-08T11:24:41.526Z,27.92
2024-04-08T11:25:41.531Z,27.92
2024-04-08T11:26:52.569Z,27.93
2024-04-08T11:27:42.594Z,27.95
2024-04-08T11:28:41.526Z,27.92
2024-04-08T11:29:41.529Z,27.99
2024-04-08T11:30:43.901Z,27.99
2024-04-08T11:31:41.670Z,28.02
2024-04-08T11:32:41.753Z,28.03
2024-04-08T11:33:41.930Z,28.01
2024-04-08T11:34:41.852Z,28.03
2024-04-08T11:35:41.903Z,28.01
2024-04-08T11:36:42.089Z,28.07
2024-04-08T11:37:45.338Z,28.03
2024-04-08T11:38:42.034Z,28.00
2024-04-08T11:39:42.088Z,28.00
2024-04-08T11:40:42.030Z,28.08
2024-04-08T11:41:42.056Z,28.04
2024-04-08T11:42:42.051Z,28.07
2024-04-08T11:43:42.399Z,28.05
2024-04-08T11:44:42.036Z,28.02
2024-04-08T11:45:42.242Z,28.08
2024-04-08T11:46:42.173Z,28.05
2024-04-08T11:47:42.050Z,28.08
2024-04-08T11:48:42.070Z,28.12
2024-04-08T11:49:43.282Z,28.07
2024-04-08T11:50:42.032Z,28.11
2024-04-08T11:51:42.255Z,28.09
2024-04-08T11:52:42.040Z,28.08
2024-04-08T11:53:42.048Z,28.09
2024-04-08T11:54:50.018Z,28.09
2024-04-08T11:55:43.058Z,28.14
2024-04-08T11:56:42.044Z,28.11
2024-04-08T11:57:42.296Z,28.11
2024-04-08T11:58:42.039Z,28.12
2024-04-08T11:59:42.045Z,28.11
2024-04-08T12:00:42.076Z,28.14
2024-04-08T12:01:44.348Z,28.12
2024-04-08T12:02:42.202Z,28.10
2024-04-08T12:03:42.194Z,28.12
2024-04-08T12:04:42.249Z,28.13
2024-04-08T12:05:42.305Z,28.07
2024-04-08T12:06:42.368Z,28.12
2024-04-08T12:07:43.582Z,28.17
2024-04-08T12:08:42.549Z,28.13
2024-04-08T12:09:42.510Z,28.10
2024-04-08T12:10:42.562Z,28.17
2024-04-08T12:11:42.735Z,28.13
2024-04-08T12:12:42.737Z,28.13
2024-04-08T12:13:44.090Z,28.12
2024-04-08T12:14:42.799Z,28.09
2024-04-08T12:15:45.756Z,28.18
2024-04-08T12:16:42.907Z,28.13
2024-04-08T12:17:43.784Z,28.14
2024-04-08T12:18:42.845Z,28.20
2024-04-08T12:19:45.625Z,28.15
2024-04-08T12:20:42.816Z,28.18
2024-04-08T12:21:42.813Z,28.16
2024-04-08T12:22:42.812Z,28.18
2024-04-08T12:23:42.819Z,28.15
2024-04-08T12:24:42.822Z,28.16
2024-04-08T12:25:42.817Z,28.20
2024-04-08T12:26:42.829Z,28.18
2024-04-08T12:27:42.822Z,28.18
2024-04-08T12:28:42.823Z,28.18
2024-04-08T12:29:42.825Z,28.25
2024-04-08T12:30:42.822Z,28.20
2024-04-08T12:31:42.831Z,28.23
2024-04-08T12:32:42.847Z,28.25
2024-04-08T12:33:42.918Z,28.27
2024-04-08T12:34:42.832Z,28.24
2024-04-08T12:35:42.837Z,28.23
2024-04-08T12:36:42.904Z,28.24
2024-04-08T12:37:43.731Z,28.29
2024-04-08T12:38:42.854Z,28.24
2024-04-08T12:39:42.857Z,28.29
2024-04-08T12:40:42.842Z,28.29
2024-04-08T12:41:42.846Z,28.30
2024-04-08T12:42:42.848Z,28.29
2024-04-08T12:43:50.716Z,28.23
2024-04-08T12:44:44.061Z,28.26
2024-04-08T12:45:43.031Z,28.25
2024-04-08T12:46:42.864Z,28.28
2024-04-08T12:47:43.023Z,28.22
2024-04-08T12:48:43.430Z,28.26
2024-04-08T12:49:42.866Z,28.31
2024-04-08T12:50:42.933Z,28.24
2024-04-08T12:51:45.937Z,28.28
2024-04-08T12:52:42.915Z,28.25
2024-04-08T12:53:42.991Z,28.24